sensor_id;sensor_type;location;lat;lon;timestamp;temperature;humidity
14099;DHT22;7126;48.458;7.930;2023-11-18T00:00:10;8.50;99.90
14099;DHT22;7126;48.458;7.930;2023-11-18T00:02:37;8.50;99.90
14099;DHT22;7126;48.458;7.930;2023-11-18T00:05:03;8.40;99.90
14099;DHT22;7126;48.458;7.930;2023-11-18T00:07:28;8.40;99.90
14099;DHT22;7126;48.458;7.930;2023-11-18T00:09:54;8.40;99.90
14099;DHT22;7126;48.458;7.930;2023-11-18T00:12:19;8.40;99.90
14099;DHT22;7126;48.458;7.930;2023-11-18T00:14:45;8.30;99.90
14099;DHT22;7126;48.458;7.930;2023-11-18T00:17:11;8.30;99.90
14099;DHT22;7126;48.458;7.930;2023-11-18T00:19:37;8.20;99.90
14099;DHT22;7126;48.458;7.930;2023-11-18T00:22:03;8.20;99.90
14099;DHT22;7126;48.458;7.930;2023-11-18T00:24:28;8.10;99.90
14099;DHT22;7126;48.458;7.930;2023-11-18T00:26:54;8.10;99.90
14099;DHT22;7126;48.458;7.930;2023-11-18T00:29:20;8.10;99.90
14099;DHT22;7126;48.458;7.930;2023-11-18T00:31:46;8.10;99.90
14099;DHT22;7126;48.458;7.930;2023-11-18T00:34:11;8.00;99.90
14099;DHT22;7126;48.458;7.930;2023-11-18T00:36:37;8.00;99.90
14099;DHT22;7126;48.458;7.930;2023-11-18T00:39:03;8.00;99.90
14099;DHT22;7126;48.458;7.930;2023-11-18T00:41:29;7.90;99.90
14099;DHT22;7126;48.458;7.930;2023-11-18T00:43:55;7.90;99.90
14099;DHT22;7126;48.458;7.930;2023-11-18T00:46:21;7.90;99.90
14099;DHT22;7126;48.458;7.930;2023-11-18T00:48:47;7.90;99.90
14099;DHT22;7126;48.458;7.930;2023-11-18T00:51:13;7.80;99.90
14099;DHT22;7126;48.458;7.930;2023-11-18T00:53:38;7.80;99.90
14099;DHT22;7126;48.458;7.930;2023-11-18T00:56:04;7.80;99.90
14099;DHT22;7126;48.458;7.930;2023-11-18T00:58:33;7.80;99.90
14099;DHT22;7126;48.458;7.930;2023-11-18T01:01:04;7.80;99.90
14099;DHT22;7126;48.458;7.930;2023-11-18T01:03:31;7.90;99.90
14099;DHT22;7126;48.458;7.930;2023-11-18T01:05:59;7.90;99.90
14099;DHT22;7126;48.458;7.930;2023-11-18T01:08:26;7.90;99.90
14099;DHT22;7126;48.458;7.930;2023-11-18T01:10:51;7.90;99.90
14099;DHT22;7126;48.458;7.930;2023-11-18T01:13:17;8.00;99.90
14099;DHT22;7126;48.458;7.930;2023-11-18T01:15:42;8.00;99.90
14099;DHT22;7126;48.458;7.930;2023-11-18T01:18:08;8.00;99.90
14099;DHT22;7126;48.458;7.930;2023-11-18T01:20:33;8.10;99.90
14099;DHT22;7126;48.458;7.930;2023-11-18T01:22:59;8.10;99.90
14099;DHT22;7126;48.458;7.930;2023-11-18T01:25:25;8.20;99.90
14099;DHT22;7126;48.458;7.930;2023-11-18T01:27:55;8.20;99.90
14099;DHT22;7126;48.458;7.930;2023-11-18T01:30:20;8.20;99.90
14099;DHT22;7126;48.458;7.930;2023-11-18T01:32:46;8.20;99.90
14099;DHT22;7126;48.458;7.930;2023-11-18T01:35:11;8.20;99.90
14099;DHT22;7126;48.458;7.930;2023-11-18T01:37:37;8.10;99.90
14099;DHT22;7126;48.458;7.930;2023-11-18T01:40:04;8.10;99.90
14099;DHT22;7126;48.458;7.930;2023-11-18T01:42:30;8.00;99.90
14099;DHT22;7126;48.458;7.930;2023-11-18T01:44:56;8.00;99.90
14099;DHT22;7126;48.458;7.930;2023-11-18T01:47:22;7.90;99.90
14099;DHT22;7126;48.458;7.930;2023-11-18T01:49:49;7.90;99.90
14099;DHT22;7126;48.458;7.930;2023-11-18T01:52:15;7.90;99.90
14099;DHT22;7126;48.458;7.930;2023-11-18T01:54:41;7.90;99.90
14099;DHT22;7126;48.458;7.930;2023-11-18T01:57:10;7.90;99.90
14099;DHT22;7126;48.458;7.930;2023-11-18T01:59:36;7.90;99.90
14099;DHT22;7126;48.458;7.930;2023-11-18T02:02:04;7.90;99.90
14099;DHT22;7126;48.458;7.930;2023-11-18T02:04:29;7.90;99.90
14099;DHT22;7126;48.458;7.930;2023-11-18T02:06:56;7.90;99.90
14099;DHT22;7126;48.458;7.930;2023-11-18T02:09:23;7.90;99.90
14099;DHT22;7126;48.458;7.930;2023-11-18T02:12:08;7.70;99.90
14099;DHT22;7126;48.458;7.930;2023-11-18T02:14:39;7.70;99.90
14099;DHT22;7126;48.458;7.930;2023-11-18T02:17:05;7.70;99.90
14099;DHT22;7126;48.458;7.930;2023-11-18T02:19:33;7.70;99.90
14099;DHT22;7126;48.458;7.930;2023-11-18T02:22:00;7.60;99.90
14099;DHT22;7126;48.458;7.930;2023-11-18T02:24:27;7.70;99.90
14099;DHT22;7126;48.458;7.930;2023-11-18T02:26:57;7.70;99.90
14099;DHT22;7126;48.458;7.930;2023-11-18T02:29:24;7.60;99.90
14099;DHT22;7126;48.458;7.930;2023-11-18T02:31:52;7.60;99.90
14099;DHT22;7126;48.458;7.930;2023-11-18T02:34:27;7.50;99.90
14099;DHT22;7126;48.458;7.930;2023-11-18T02:36:54;7.50;99.90
14099;DHT22;7126;48.458;7.930;2023-11-18T02:39:31;7.50;99.90
14099;DHT22;7126;48.458;7.930;2023-11-18T02:42:01;7.50;99.90
14099;DHT22;7126;48.458;7.930;2023-11-18T02:44:28;7.40;99.90
14099;DHT22;7126;48.458;7.930;2023-11-18T02:46:54;7.40;99.90
14099;DHT22;7126;48.458;7.930;2023-11-18T02:49:20;7.30;99.90
14099;DHT22;7126;48.458;7.930;2023-11-18T02:51:45;7.30;99.90
14099;DHT22;7126;48.458;7.930;2023-11-18T02:54:13;7.20;99.90
14099;DHT22;7126;48.458;7.930;2023-11-18T02:56:39;7.20;99.90
14099;DHT22;7126;48.458;7.930;2023-11-18T02:59:05;7.20;99.90
14099;DHT22;7126;48.458;7.930;2023-11-18T03:01:32;7.20;99.90
14099;DHT22;7126;48.458;7.930;2023-11-18T03:03:59;7.20;99.90
14099;DHT22;7126;48.458;7.930;2023-11-18T03:06:24;7.20;99.90
14099;DHT22;7126;48.458;7.930;2023-11-18T03:08:51;7.10;99.90
14099;DHT22;7126;48.458;7.930;2023-11-18T03:11:19;7.00;99.90
14099;DHT22;7126;48.458;7.930;2023-11-18T03:13:44;7.00;99.90
14099;DHT22;7126;48.458;7.930;2023-11-18T03:16:11;7.00;99.90
14099;DHT22;7126;48.458;7.930;2023-11-18T03:18:41;7.00;99.90
14099;DHT22;7126;48.458;7.930;2023-11-18T03:21:14;6.90;99.90
14099;DHT22;7126;48.458;7.930;2023-11-18T03:23:40;6.90;99.90
14099;DHT22;7126;48.458;7.930;2023-11-18T03:26:09;6.90;99.90
14099;DHT22;7126;48.458;7.930;2023-11-18T03:28:35;6.90;99.90
14099;DHT22;7126;48.458;7.930;2023-11-18T03:31:04;6.80;99.90
14099;DHT22;7126;48.458;7.930;2023-11-18T03:33:30;6.80;99.90
14099;DHT22;7126;48.458;7.930;2023-11-18T03:35:55;6.70;99.90
14099;DHT22;7126;48.458;7.930;2023-11-18T03:38:21;6.70;99.90
14099;DHT22;7126;48.458;7.930;2023-11-18T03:40:47;6.70;99.90
14099;DHT22;7126;48.458;7.930;2023-11-18T03:43:13;6.80;99.90
14099;DHT22;7126;48.458;7.930;2023-11-18T03:45:39;6.80;99.90
14099;DHT22;7126;48.458;7.930;2023-11-18T03:48:06;6.80;99.90
14099;DHT22;7126;48.458;7.930;2023-11-18T03:50:32;6.80;99.90
14099;DHT22;7126;48.458;7.930;2023-11-18T03:52:57;6.80;99.90
14099;DHT22;7126;48.458;7.930;2023-11-18T03:55:24;6.80;99.90
14099;DHT22;7126;48.458;7.930;2023-11-18T03:57:51;6.70;99.90
14099;DHT22;7126;48.458;7.930;2023-11-18T04:00:17;6.70;99.90
14099;DHT22;7126;48.458;7.930;2023-11-18T04:02:43;6.70;99.90
14099;DHT22;7126;48.458;7.930;2023-11-18T04:05:11;6.70;99.90
14099;DHT22;7126;48.458;7.930;2023-11-18T04:07:36;6.70;99.90
14099;DHT22;7126;48.458;7.930;2023-11-18T04:10:02;6.70;99.90
14099;DHT22;7126;48.458;7.930;2023-11-18T04:12:31;6.70;99.90
14099;DHT22;7126;48.458;7.930;2023-11-18T04:14:56;6.70;99.90
14099;DHT22;7126;48.458;7.930;2023-11-18T04:17:22;6.60;99.90
14099;DHT22;7126;48.458;7.930;2023-11-18T04:19:47;6.60;99.90
14099;DHT22;7126;48.458;7.930;2023-11-18T04:22:13;6.60;99.90
14099;DHT22;7126;48.458;7.930;2023-11-18T04:24:38;6.60;99.90
14099;DHT22;7126;48.458;7.930;2023-11-18T04:27:04;6.60;99.90
14099;DHT22;7126;48.458;7.930;2023-11-18T04:29:30;6.50;99.90
14099;DHT22;7126;48.458;7.930;2023-11-18T04:31:55;6.50;99.90
14099;DHT22;7126;48.458;7.930;2023-11-18T04:34:21;6.50;99.90
14099;DHT22;7126;48.458;7.930;2023-11-18T04:36:47;6.50;99.90
14099;DHT22;7126;48.458;7.930;2023-11-18T04:39:13;6.50;99.90
14099;DHT22;7126;48.458;7.930;2023-11-18T04:41:41;6.40;99.90
14099;DHT22;7126;48.458;7.930;2023-11-18T04:44:07;6.40;99.90
14099;DHT22;7126;48.458;7.930;2023-11-18T04:46:32;6.40;99.90
14099;DHT22;7126;48.458;7.930;2023-11-18T04:48:58;6.30;99.90
14099;DHT22;7126;48.458;7.930;2023-11-18T04:51:24;6.30;99.90
14099;DHT22;7126;48.458;7.930;2023-11-18T04:53:49;6.20;99.90
14099;DHT22;7126;48.458;7.930;2023-11-18T04:56:15;6.20;99.90
14099;DHT22;7126;48.458;7.930;2023-11-18T04:58:43;6.30;99.90
14099;DHT22;7126;48.458;7.930;2023-11-18T05:01:13;6.30;99.90
14099;DHT22;7126;48.458;7.930;2023-11-18T05:03:38;6.20;99.90
14099;DHT22;7126;48.458;7.930;2023-11-18T05:06:04;6.10;99.90
14099;DHT22;7126;48.458;7.930;2023-11-18T05:08:30;6.10;99.90
14099;DHT22;7126;48.458;7.930;2023-11-18T05:10:56;6.10;99.90
14099;DHT22;7126;48.458;7.930;2023-11-18T05:13:23;6.10;99.90
14099;DHT22;7126;48.458;7.930;2023-11-18T05:15:48;6.10;99.90
14099;DHT22;7126;48.458;7.930;2023-11-18T05:18:15;6.10;99.90
14099;DHT22;7126;48.458;7.930;2023-11-18T05:20:41;6.10;99.90
14099;DHT22;7126;48.458;7.930;2023-11-18T05:23:07;6.20;99.90
14099;DHT22;7126;48.458;7.930;2023-11-18T05:25:36;6.10;99.90
14099;DHT22;7126;48.458;7.930;2023-11-18T05:28:02;6.10;99.90
14099;DHT22;7126;48.458;7.930;2023-11-18T05:30:28;6.00;99.90
14099;DHT22;7126;48.458;7.930;2023-11-18T05:32:53;6.00;99.90
14099;DHT22;7126;48.458;7.930;2023-11-18T05:35:19;6.00;99.90
14099;DHT22;7126;48.458;7.930;2023-11-18T05:37:48;6.00;99.90
14099;DHT22;7126;48.458;7.930;2023-11-18T05:40:14;6.00;99.90
14099;DHT22;7126;48.458;7.930;2023-11-18T05:42:40;5.90;99.90
14099;DHT22;7126;48.458;7.930;2023-11-18T05:45:07;5.90;99.90
14099;DHT22;7126;48.458;7.930;2023-11-18T05:47:35;5.80;99.90
14099;DHT22;7126;48.458;7.930;2023-11-18T05:50:00;5.80;99.90
14099;DHT22;7126;48.458;7.930;2023-11-18T05:52:26;5.90;99.90
14099;DHT22;7126;48.458;7.930;2023-11-18T05:54:52;5.90;99.90
14099;DHT22;7126;48.458;7.930;2023-11-18T05:57:18;5.90;99.90
14099;DHT22;7126;48.458;7.930;2023-11-18T05:59:44;5.80;99.90
14099;DHT22;7126;48.458;7.930;2023-11-18T06:02:10;5.80;99.90
14099;DHT22;7126;48.458;7.930;2023-11-18T06:04:43;5.80;99.90
14099;DHT22;7126;48.458;7.930;2023-11-18T06:07:09;5.90;99.90
14099;DHT22;7126;48.458;7.930;2023-11-18T06:09:34;5.80;99.90
14099;DHT22;7126;48.458;7.930;2023-11-18T06:12:00;5.90;99.90
14099;DHT22;7126;48.458;7.930;2023-11-18T06:14:27;5.90;99.90
14099;DHT22;7126;48.458;7.930;2023-11-18T06:16:52;5.90;99.90
14099;DHT22;7126;48.458;7.930;2023-11-18T06:19:18;5.90;99.90
14099;DHT22;7126;48.458;7.930;2023-11-18T06:21:44;5.90;99.90
14099;DHT22;7126;48.458;7.930;2023-11-18T06:24:09;6.00;99.90
14099;DHT22;7126;48.458;7.930;2023-11-18T06:26:37;5.90;99.90
14099;DHT22;7126;48.458;7.930;2023-11-18T06:29:03;6.00;99.90
14099;DHT22;7126;48.458;7.930;2023-11-18T06:31:29;6.00;99.90
14099;DHT22;7126;48.458;7.930;2023-11-18T06:33:55;6.10;99.90
14099;DHT22;7126;48.458;7.930;2023-11-18T06:36:21;6.10;99.90
14099;DHT22;7126;48.458;7.930;2023-11-18T06:38:49;6.10;99.90
14099;DHT22;7126;48.458;7.930;2023-11-18T06:41:19;6.00;99.90
14099;DHT22;7126;48.458;7.930;2023-11-18T06:43:46;6.00;99.90
14099;DHT22;7126;48.458;7.930;2023-11-18T06:46:22;6.00;99.90
14099;DHT22;7126;48.458;7.930;2023-11-18T06:48:52;6.10;99.90
14099;DHT22;7126;48.458;7.930;2023-11-18T06:51:21;6.00;99.90
14099;DHT22;7126;48.458;7.930;2023-11-18T06:53:53;6.10;99.90
14099;DHT22;7126;48.458;7.930;2023-11-18T06:56:26;6.00;99.90
14099;DHT22;7126;48.458;7.930;2023-11-18T06:58:52;6.10;99.90
14099;DHT22;7126;48.458;7.930;2023-11-18T07:01:18;6.10;99.90
14099;DHT22;7126;48.458;7.930;2023-11-18T07:03:45;6.10;99.90
14099;DHT22;7126;48.458;7.930;2023-11-18T07:06:17;6.10;99.90
14099;DHT22;7126;48.458;7.930;2023-11-18T07:08:50;6.10;99.90
14099;DHT22;7126;48.458;7.930;2023-11-18T07:11:16;6.10;99.90
14099;DHT22;7126;48.458;7.930;2023-11-18T07:13:43;6.10;99.90
14099;DHT22;7126;48.458;7.930;2023-11-18T07:16:09;6.10;99.90
14099;DHT22;7126;48.458;7.930;2023-11-18T07:18:35;6.10;99.90
14099;DHT22;7126;48.458;7.930;2023-11-18T07:21:03;6.10;99.90
14099;DHT22;7126;48.458;7.930;2023-11-18T07:23:33;6.20;99.90
14099;DHT22;7126;48.458;7.930;2023-11-18T07:26:00;6.20;99.90
14099;DHT22;7126;48.458;7.930;2023-11-18T07:28:26;6.10;99.90
14099;DHT22;7126;48.458;7.930;2023-11-18T07:30:53;6.20;99.90
14099;DHT22;7126;48.458;7.930;2023-11-18T07:33:19;6.20;99.90
14099;DHT22;7126;48.458;7.930;2023-11-18T07:35:46;6.20;99.90
14099;DHT22;7126;48.458;7.930;2023-11-18T07:38:12;6.20;99.90
14099;DHT22;7126;48.458;7.930;2023-11-18T07:40:38;6.30;99.90
14099;DHT22;7126;48.458;7.930;2023-11-18T07:43:08;6.30;99.90
14099;DHT22;7126;48.458;7.930;2023-11-18T07:45:37;6.30;99.90
14099;DHT22;7126;48.458;7.930;2023-11-18T07:48:15;6.30;99.90
14099;DHT22;7126;48.458;7.930;2023-11-18T07:50:43;6.30;99.90
14099;DHT22;7126;48.458;7.930;2023-11-18T07:53:12;6.30;99.90
14099;DHT22;7126;48.458;7.930;2023-11-18T07:55:38;6.30;99.90
14099;DHT22;7126;48.458;7.930;2023-11-18T07:58:07;6.40;99.90
14099;DHT22;7126;48.458;7.930;2023-11-18T08:00:37;6.30;99.90
14099;DHT22;7126;48.458;7.930;2023-11-18T08:03:04;6.30;99.90
14099;DHT22;7126;48.458;7.930;2023-11-18T08:05:32;6.30;99.90
14099;DHT22;7126;48.458;7.930;2023-11-18T08:07:58;6.30;99.90
14099;DHT22;7126;48.458;7.930;2023-11-18T08:10:24;6.30;99.90
14099;DHT22;7126;48.458;7.930;2023-11-18T08:12:50;6.40;99.90
14099;DHT22;7126;48.458;7.930;2023-11-18T08:15:17;6.50;99.90
14099;DHT22;7126;48.458;7.930;2023-11-18T08:17:44;6.50;99.90
14099;DHT22;7126;48.458;7.930;2023-11-18T08:20:10;6.60;99.90
14099;DHT22;7126;48.458;7.930;2023-11-18T08:22:40;6.60;99.90
14099;DHT22;7126;48.458;7.930;2023-11-18T08:25:07;6.70;99.90
14099;DHT22;7126;48.458;7.930;2023-11-18T08:27:34;6.70;99.90
14099;DHT22;7126;48.458;7.930;2023-11-18T08:30:01;6.80;99.90
14099;DHT22;7126;48.458;7.930;2023-11-18T08:32:26;6.80;99.90
14099;DHT22;7126;48.458;7.930;2023-11-18T08:34:52;6.80;99.90
14099;DHT22;7126;48.458;7.930;2023-11-18T08:37:17;6.70;99.90
14099;DHT22;7126;48.458;7.930;2023-11-18T08:39:43;6.80;99.90
14099;DHT22;7126;48.458;7.930;2023-11-18T08:42:08;6.80;99.90
14099;DHT22;7126;48.458;7.930;2023-11-18T08:44:34;6.80;99.90
14099;DHT22;7126;48.458;7.930;2023-11-18T08:46:59;6.70;99.90
14099;DHT22;7126;48.458;7.930;2023-11-18T08:49:26;6.80;99.90
14099;DHT22;7126;48.458;7.930;2023-11-18T08:51:59;6.90;99.90
14099;DHT22;7126;48.458;7.930;2023-11-18T08:54:24;7.00;99.90
14099;DHT22;7126;48.458;7.930;2023-11-18T08:57:05;7.10;99.90
14099;DHT22;7126;48.458;7.930;2023-11-18T08:59:45;7.20;99.90
14099;DHT22;7126;48.458;7.930;2023-11-18T09:02:10;7.20;99.90
14099;DHT22;7126;48.458;7.930;2023-11-18T09:04:40;7.30;99.90
14099;DHT22;7126;48.458;7.930;2023-11-18T09:07:09;7.30;99.90
14099;DHT22;7126;48.458;7.930;2023-11-18T09:09:35;7.30;99.90
14099;DHT22;7126;48.458;7.930;2023-11-18T09:12:01;7.40;99.90
14099;DHT22;7126;48.458;7.930;2023-11-18T09:14:28;7.40;99.90
14099;DHT22;7126;48.458;7.930;2023-11-18T09:16:53;7.40;99.90
14099;DHT22;7126;48.458;7.930;2023-11-18T09:19:24;7.50;99.90
14099;DHT22;7126;48.458;7.930;2023-11-18T09:21:50;7.60;99.90
14099;DHT22;7126;48.458;7.930;2023-11-18T09:24:17;7.60;99.90
14099;DHT22;7126;48.458;7.930;2023-11-18T09:26:45;7.60;99.90
14099;DHT22;7126;48.458;7.930;2023-11-18T09:29:18;7.70;99.90
14099;DHT22;7126;48.458;7.930;2023-11-18T09:31:49;7.70;99.90
14099;DHT22;7126;48.458;7.930;2023-11-18T09:34:15;7.70;99.90
14099;DHT22;7126;48.458;7.930;2023-11-18T09:36:43;7.80;99.90
14099;DHT22;7126;48.458;7.930;2023-11-18T09:39:09;7.80;99.90
14099;DHT22;7126;48.458;7.930;2023-11-18T09:41:41;7.90;99.90
14099;DHT22;7126;48.458;7.930;2023-11-18T09:44:07;7.80;99.90
14099;DHT22;7126;48.458;7.930;2023-11-18T09:46:36;7.80;99.90
14099;DHT22;7126;48.458;7.930;2023-11-18T09:49:22;7.90;99.90
14099;DHT22;7126;48.458;7.930;2023-11-18T09:51:59;8.00;99.90
14099;DHT22;7126;48.458;7.930;2023-11-18T09:54:39;8.00;99.90
14099;DHT22;7126;48.458;7.930;2023-11-18T09:59:58;8.10;99.90
14099;DHT22;7126;48.458;7.930;2023-11-18T10:02:38;8.10;99.90
14099;DHT22;7126;48.458;7.930;2023-11-18T10:05:06;8.20;99.90
14099;DHT22;7126;48.458;7.930;2023-11-18T10:07:39;8.30;99.90
14099;DHT22;7126;48.458;7.930;2023-11-18T10:10:07;8.30;99.90
14099;DHT22;7126;48.458;7.930;2023-11-18T10:12:41;8.40;99.90
14099;DHT22;7126;48.458;7.930;2023-11-18T10:15:08;8.40;99.90
14099;DHT22;7126;48.458;7.930;2023-11-18T10:17:43;8.40;99.90
14099;DHT22;7126;48.458;7.930;2023-11-18T10:20:45;8.40;99.90
14099;DHT22;7126;48.458;7.930;2023-11-18T10:23:15;8.40;99.90
14099;DHT22;7126;48.458;7.930;2023-11-18T10:25:58;8.40;99.90
14099;DHT22;7126;48.458;7.930;2023-11-18T10:28:30;8.40;99.90
14099;DHT22;7126;48.458;7.930;2023-11-18T10:31:05;8.40;99.90
14099;DHT22;7126;48.458;7.930;2023-11-18T10:33:35;8.40;99.90
14099;DHT22;7126;48.458;7.930;2023-11-18T10:36:01;8.40;99.90
14099;DHT22;7126;48.458;7.930;2023-11-18T10:38:31;8.50;99.90
14099;DHT22;7126;48.458;7.930;2023-11-18T10:40:59;8.50;99.90
14099;DHT22;7126;48.458;7.930;2023-11-18T10:43:28;8.60;99.90
14099;DHT22;7126;48.458;7.930;2023-11-18T10:46:11;8.70;99.90
14099;DHT22;7126;48.458;7.930;2023-11-18T10:48:55;8.70;99.90
14099;DHT22;7126;48.458;7.930;2023-11-18T10:51:21;8.70;99.90
14099;DHT22;7126;48.458;7.930;2023-11-18T10:53:51;8.70;99.90
14099;DHT22;7126;48.458;7.930;2023-11-18T10:56:26;8.70;99.90
14099;DHT22;7126;48.458;7.930;2023-11-18T10:59:12;8.80;99.90
14099;DHT22;7126;48.458;7.930;2023-11-18T11:01:42;8.80;99.90
14099;DHT22;7126;48.458;7.930;2023-11-18T11:04:11;8.80;99.90
14099;DHT22;7126;48.458;7.930;2023-11-18T11:06:47;8.90;99.90
14099;DHT22;7126;48.458;7.930;2023-11-18T11:09:18;8.90;99.90
14099;DHT22;7126;48.458;7.930;2023-11-18T11:11:54;8.90;99.90
14099;DHT22;7126;48.458;7.930;2023-11-18T11:14:22;9.00;99.90
14099;DHT22;7126;48.458;7.930;2023-11-18T11:16:54;8.90;99.90
14099;DHT22;7126;48.458;7.930;2023-11-18T11:19:34;8.90;99.90
14099;DHT22;7126;48.458;7.930;2023-11-18T11:22:10;8.90;99.90
14099;DHT22;7126;48.458;7.930;2023-11-18T11:27:41;8.80;99.90
14099;DHT22;7126;48.458;7.930;2023-11-18T11:30:17;8.80;99.90
14099;DHT22;7126;48.458;7.930;2023-11-18T11:32:51;8.60;99.90
14099;DHT22;7126;48.458;7.930;2023-11-18T11:35:26;8.60;99.90
14099;DHT22;7126;48.458;7.930;2023-11-18T11:37:56;8.70;99.90
14099;DHT22;7126;48.458;7.930;2023-11-18T11:40:36;8.70;99.90
14099;DHT22;7126;48.458;7.930;2023-11-18T11:43:05;8.70;99.90
14099;DHT22;7126;48.458;7.930;2023-11-18T11:45:35;8.70;99.90
14099;DHT22;7126;48.458;7.930;2023-11-18T11:48:02;8.70;99.90
14099;DHT22;7126;48.458;7.930;2023-11-18T11:53:42;8.70;99.90
14099;DHT22;7126;48.458;7.930;2023-11-18T11:56:11;8.60;99.90
14099;DHT22;7126;48.458;7.930;2023-11-18T11:58:41;8.70;99.90
14099;DHT22;7126;48.458;7.930;2023-11-18T12:03:43;8.70;99.90
14099;DHT22;7126;48.458;7.930;2023-11-18T12:06:17;8.70;99.90
14099;DHT22;7126;48.458;7.930;2023-11-18T12:08:46;8.60;99.90
14099;DHT22;7126;48.458;7.930;2023-11-18T12:11:13;8.70;99.90
14099;DHT22;7126;48.458;7.930;2023-11-18T12:14:03;8.60;99.90
14099;DHT22;7126;48.458;7.930;2023-11-18T12:17:00;8.70;99.90
14099;DHT22;7126;48.458;7.930;2023-11-18T12:19:33;8.70;99.90
14099;DHT22;7126;48.458;7.930;2023-11-18T12:22:10;8.70;99.90
14099;DHT22;7126;48.458;7.930;2023-11-18T12:25:28;8.80;99.90
14099;DHT22;7126;48.458;7.930;2023-11-18T12:33:04;9.00;99.90
14099;DHT22;7126;48.458;7.930;2023-11-18T12:39:14;9.10;99.90
14099;DHT22;7126;48.458;7.930;2023-11-18T12:42:01;9.20;99.90
14099;DHT22;7126;48.458;7.930;2023-11-18T12:44:37;9.20;99.90
14099;DHT22;7126;48.458;7.930;2023-11-18T12:47:05;9.30;99.90
14099;DHT22;7126;48.458;7.930;2023-11-18T12:49:41;9.40;99.90
14099;DHT22;7126;48.458;7.930;2023-11-18T12:52:11;9.40;99.90
14099;DHT22;7126;48.458;7.930;2023-11-18T12:54:40;9.40;99.90
14099;DHT22;7126;48.458;7.930;2023-11-18T12:57:09;9.40;99.90
14099;DHT22;7126;48.458;7.930;2023-11-18T12:59:35;9.40;99.90
14099;DHT22;7126;48.458;7.930;2023-11-18T13:02:09;9.50;99.90
14099;DHT22;7126;48.458;7.930;2023-11-18T13:04:39;9.50;99.90
14099;DHT22;7126;48.458;7.930;2023-11-18T13:07:06;9.60;99.90
14099;DHT22;7126;48.458;7.930;2023-11-18T13:09:34;9.60;99.90
14099;DHT22;7126;48.458;7.930;2023-11-18T13:12:02;9.60;99.90
14099;DHT22;7126;48.458;7.930;2023-11-18T13:14:30;9.60;99.90
14099;DHT22;7126;48.458;7.930;2023-11-18T13:17:02;9.60;99.90
14099;DHT22;7126;48.458;7.930;2023-11-18T13:19:31;9.60;99.90
14099;DHT22;7126;48.458;7.930;2023-11-18T13:22:04;9.60;99.90
14099;DHT22;7126;48.458;7.930;2023-11-18T13:24:30;9.70;99.90
14099;DHT22;7126;48.458;7.930;2023-11-18T13:26:57;9.60;99.90
14099;DHT22;7126;48.458;7.930;2023-11-18T13:29:23;9.50;99.90
14099;DHT22;7126;48.458;7.930;2023-11-18T13:31:50;9.50;99.90
14099;DHT22;7126;48.458;7.930;2023-11-18T13:34:18;9.40;99.90
14099;DHT22;7126;48.458;7.930;2023-11-18T13:36:43;9.40;99.90
14099;DHT22;7126;48.458;7.930;2023-11-18T13:39:16;9.40;99.90
14099;DHT22;7126;48.458;7.930;2023-11-18T13:41:42;9.30;99.90
14099;DHT22;7126;48.458;7.930;2023-11-18T13:44:08;9.20;99.90
14099;DHT22;7126;48.458;7.930;2023-11-18T13:46:43;9.20;99.90
14099;DHT22;7126;48.458;7.930;2023-11-18T13:49:09;9.10;99.90
14099;DHT22;7126;48.458;7.930;2023-11-18T13:51:35;9.10;99.90
14099;DHT22;7126;48.458;7.930;2023-11-18T13:54:02;9.10;99.90
14099;DHT22;7126;48.458;7.930;2023-11-18T13:56:29;9.10;99.90
14099;DHT22;7126;48.458;7.930;2023-11-18T13:58:55;9.10;99.90
14099;DHT22;7126;48.458;7.930;2023-11-18T14:01:21;9.10;99.90
14099;DHT22;7126;48.458;7.930;2023-11-18T14:03:47;9.10;99.90
14099;DHT22;7126;48.458;7.930;2023-11-18T14:06:13;9.10;99.90
14099;DHT22;7126;48.458;7.930;2023-11-18T14:08:43;9.10;99.90
14099;DHT22;7126;48.458;7.930;2023-11-18T14:11:09;9.10;99.90
14099;DHT22;7126;48.458;7.930;2023-11-18T14:13:35;9.10;99.90
14099;DHT22;7126;48.458;7.930;2023-11-18T14:16:04;9.10;99.90
14099;DHT22;7126;48.458;7.930;2023-11-18T14:18:34;9.20;99.90
14099;DHT22;7126;48.458;7.930;2023-11-18T14:21:01;9.20;99.90
14099;DHT22;7126;48.458;7.930;2023-11-18T14:23:27;9.20;99.90
14099;DHT22;7126;48.458;7.930;2023-11-18T14:25:53;9.20;99.90
14099;DHT22;7126;48.458;7.930;2023-11-18T14:28:19;9.30;99.90
14099;DHT22;7126;48.458;7.930;2023-11-18T14:30:48;9.30;99.90
14099;DHT22;7126;48.458;7.930;2023-11-18T14:33:14;9.30;99.90
14099;DHT22;7126;48.458;7.930;2023-11-18T14:35:39;9.30;99.90
14099;DHT22;7126;48.458;7.930;2023-11-18T14:38:05;9.30;99.90
14099;DHT22;7126;48.458;7.930;2023-11-18T14:40:33;9.30;99.90
14099;DHT22;7126;48.458;7.930;2023-11-18T14:42:59;9.30;99.90
14099;DHT22;7126;48.458;7.930;2023-11-18T14:45:24;9.30;99.90
14099;DHT22;7126;48.458;7.930;2023-11-18T14:47:50;9.30;99.90
14099;DHT22;7126;48.458;7.930;2023-11-18T14:50:20;9.30;99.90
14099;DHT22;7126;48.458;7.930;2023-11-18T14:52:52;9.40;99.90
14099;DHT22;7126;48.458;7.930;2023-11-18T14:55:27;9.50;99.90
14099;DHT22;7126;48.458;7.930;2023-11-18T14:57:52;9.60;99.90
14099;DHT22;7126;48.458;7.930;2023-11-18T15:00:18;9.60;99.90
14099;DHT22;7126;48.458;7.930;2023-11-18T15:02:48;9.60;99.90
14099;DHT22;7126;48.458;7.930;2023-11-18T15:05:15;9.70;99.90
14099;DHT22;7126;48.458;7.930;2023-11-18T15:07:45;9.70;99.90
14099;DHT22;7126;48.458;7.930;2023-11-18T15:10:16;9.80;99.90
14099;DHT22;7126;48.458;7.930;2023-11-18T15:12:48;9.80;99.90
14099;DHT22;7126;48.458;7.930;2023-11-18T15:15:14;9.80;99.90
14099;DHT22;7126;48.458;7.930;2023-11-18T15:17:45;9.80;99.90
14099;DHT22;7126;48.458;7.930;2023-11-18T15:20:11;9.80;99.90
14099;DHT22;7126;48.458;7.930;2023-11-18T15:22:40;9.80;99.90
14099;DHT22;7126;48.458;7.930;2023-11-18T15:25:08;9.80;99.90
14099;DHT22;7126;48.458;7.930;2023-11-18T15:27:44;9.70;99.90
14099;DHT22;7126;48.458;7.930;2023-11-18T15:30:16;9.80;99.90
14099;DHT22;7126;48.458;7.930;2023-11-18T15:32:44;9.80;99.90
14099;DHT22;7126;48.458;7.930;2023-11-18T15:35:10;9.70;99.90
14099;DHT22;7126;48.458;7.930;2023-11-18T15:37:40;9.70;99.90
14099;DHT22;7126;48.458;7.930;2023-11-18T15:40:13;9.70;99.90
14099;DHT22;7126;48.458;7.930;2023-11-18T15:42:43;9.70;99.90
14099;DHT22;7126;48.458;7.930;2023-11-18T15:45:13;9.70;99.90
14099;DHT22;7126;48.458;7.930;2023-11-18T15:47:39;9.70;99.90
14099;DHT22;7126;48.458;7.930;2023-11-18T15:50:06;9.70;99.90
14099;DHT22;7126;48.458;7.930;2023-11-18T15:52:32;9.70;99.90
14099;DHT22;7126;48.458;7.930;2023-11-18T15:55:00;9.60;99.90
14099;DHT22;7126;48.458;7.930;2023-11-18T15:57:26;9.60;99.90
14099;DHT22;7126;48.458;7.930;2023-11-18T15:59:52;9.60;99.90
14099;DHT22;7126;48.458;7.930;2023-11-18T16:02:17;9.50;99.90
14099;DHT22;7126;48.458;7.930;2023-11-18T16:04:43;9.50;99.90
14099;DHT22;7126;48.458;7.930;2023-11-18T16:07:09;9.50;99.90
14099;DHT22;7126;48.458;7.930;2023-11-18T16:09:34;9.40;99.90
14099;DHT22;7126;48.458;7.930;2023-11-18T16:12:00;9.40;99.90
14099;DHT22;7126;48.458;7.930;2023-11-18T16:14:25;9.40;99.90
14099;DHT22;7126;48.458;7.930;2023-11-18T16:16:51;9.30;99.90
14099;DHT22;7126;48.458;7.930;2023-11-18T16:19:17;9.30;99.90
14099;DHT22;7126;48.458;7.930;2023-11-18T16:21:42;9.20;99.90
14099;DHT22;7126;48.458;7.930;2023-11-18T16:24:08;9.20;99.90
14099;DHT22;7126;48.458;7.930;2023-11-18T16:26:34;9.10;99.90
14099;DHT22;7126;48.458;7.930;2023-11-18T16:29:00;9.10;99.90